sensor_id;sensor_type;location;lat;lon;timestamp;P1;durP1;ratioP1;P2;durP2;ratioP2
40074;SDS011;26529;51.530;11.754;2022-11-20T00:03:44;8.10;;;3.35;;
40074;SDS011;26529;51.530;11.754;2022-11-20T00:06:11;6.70;;;2.72;;
40074;SDS011;26529;51.530;11.754;2022-11-20T00:08:39;4.07;;;2.90;;
40074;SDS011;26529;51.530;11.754;2022-11-20T00:11:15;3.40;;;2.72;;
40074;SDS011;26529;51.530;11.754;2022-11-20T00:13:43;8.00;;;3.45;;
40074;SDS011;26529;51.530;11.754;2022-11-20T00:16:10;5.57;;;3.10;;
40074;SDS011;26529;51.530;11.754;2022-11-20T00:18:37;4.10;;;2.83;;
40074;SDS011;26529;51.530;11.754;2022-11-20T00:21:03;7.72;;;2.78;;
40074;SDS011;26529;51.530;11.754;2022-11-20T00:23:30;7.15;;;3.17;;
40074;SDS011;26529;51.530;11.754;2022-11-20T00:25:56;4.30;;;2.80;;
40074;SDS011;26529;51.530;11.754;2022-11-20T00:28:25;5.18;;;2.80;;
40074;SDS011;26529;51.530;11.754;2022-11-20T00:30:51;4.20;;;3.05;;
40074;SDS011;26529;51.530;11.754;2022-11-20T00:33:16;4.45;;;3.03;;
40074;SDS011;26529;51.530;11.754;2022-11-20T00:35:42;5.88;;;3.22;;
40074;SDS011;26529;51.530;11.754;2022-11-20T00:38:07;6.20;;;2.83;;
40074;SDS011;26529;51.530;11.754;2022-11-20T00:40:33;4.53;;;2.83;;
40074;SDS011;26529;51.530;11.754;2022-11-20T00:42:58;3.92;;;2.78;;
40074;SDS011;26529;51.530;11.754;2022-11-20T00:45:24;8.05;;;2.78;;
40074;SDS011;26529;51.530;11.754;2022-11-20T00:47:49;5.63;;;2.92;;
40074;SDS011;26529;51.530;11.754;2022-11-20T00:50:15;3.55;;;2.20;;
40074;SDS011;26529;51.530;11.754;2022-11-20T00:52:40;4.63;;;3.00;;
40074;SDS011;26529;51.530;11.754;2022-11-20T00:55:06;7.15;;;3.08;;
40074;SDS011;26529;51.530;11.754;2022-11-20T00:57:32;4.70;;;2.65;;
40074;SDS011;26529;51.530;11.754;2022-11-20T00:59:57;8.43;;;2.70;;
40074;SDS011;26529;51.530;11.754;2022-11-20T01:02:23;4.53;;;2.58;;
40074;SDS011;26529;51.530;11.754;2022-11-20T01:04:48;4.85;;;2.72;;
40074;SDS011;26529;51.530;11.754;2022-11-20T01:07:14;6.05;;;3.28;;
40074;SDS011;26529;51.530;11.754;2022-11-20T01:09:39;5.07;;;2.90;;
40074;SDS011;26529;51.530;11.754;2022-11-20T01:12:05;3.50;;;2.63;;
40074;SDS011;26529;51.530;11.754;2022-11-20T01:14:30;3.67;;;2.60;;
40074;SDS011;26529;51.530;11.754;2022-11-20T01:16:56;4.40;;;3.03;;
40074;SDS011;26529;51.530;11.754;2022-11-20T01:19:22;4.07;;;2.53;;
40074;SDS011;26529;51.530;11.754;2022-11-20T01:21:49;3.60;;;2.85;;
40074;SDS011;26529;51.530;11.754;2022-11-20T01:24:17;4.03;;;2.85;;
40074;SDS011;26529;51.530;11.754;2022-11-20T01:26:44;4.05;;;2.63;;
40074;SDS011;26529;51.530;11.754;2022-11-20T01:29:14;3.60;;;2.45;;
40074;SDS011;26529;51.530;11.754;2022-11-20T01:31:49;3.75;;;2.70;;
40074;SDS011;26529;51.530;11.754;2022-11-20T01:34:16;3.30;;;2.47;;
40074;SDS011;26529;51.530;11.754;2022-11-20T01:36:43;3.40;;;2.90;;
40074;SDS011;26529;51.530;11.754;2022-11-20T01:39:19;4.97;;;3.10;;
40074;SDS011;26529;51.530;11.754;2022-11-20T01:41:47;3.42;;;2.95;;
40074;SDS011;26529;51.530;11.754;2022-11-20T01:47:07;3.42;;;2.70;;
40074;SDS011;26529;51.530;11.754;2022-11-20T01:49:37;7.25;;;3.20;;
40074;SDS011;26529;51.530;11.754;2022-11-20T01:52:24;3.90;;;3.10;;
40074;SDS011;26529;51.530;11.754;2022-11-20T01:55:02;3.88;;;2.58;;
40074;SDS011;26529;51.530;11.754;2022-11-20T01:57:32;3.50;;;2.65;;
40074;SDS011;26529;51.530;11.754;2022-11-20T02:00:03;4.13;;;2.50;;
40074;SDS011;26529;51.530;11.754;2022-11-20T02:02:43;3.47;;;2.60;;
40074;SDS011;26529;51.530;11.754;2022-11-20T02:05:16;3.30;;;2.40;;
40074;SDS011;26529;51.530;11.754;2022-11-20T02:07:47;4.30;;;2.65;;
40074;SDS011;26529;51.530;11.754;2022-11-20T02:10:14;4.50;;;2.80;;
40074;SDS011;26529;51.530;11.754;2022-11-20T02:12:40;5.45;;;2.92;;
40074;SDS011;26529;51.530;11.754;2022-11-20T02:15:24;3.72;;;2.75;;
40074;SDS011;26529;51.530;11.754;2022-11-20T02:17:50;5.25;;;2.60;;
40074;SDS011;26529;51.530;11.754;2022-11-20T02:20:15;3.92;;;2.22;;
40074;SDS011;26529;51.530;11.754;2022-11-20T02:22:45;3.72;;;2.50;;
40074;SDS011;26529;51.530;11.754;2022-11-20T02:25:18;2.88;;;2.55;;
40074;SDS011;26529;51.530;11.754;2022-11-20T02:27:45;9.07;;;2.70;;
40074;SDS011;26529;51.530;11.754;2022-11-20T02:30:10;3.22;;;2.35;;
40074;SDS011;26529;51.530;11.754;2022-11-20T02:32:37;3.72;;;2.78;;
40074;SDS011;26529;51.530;11.754;2022-11-20T02:35:07;3.17;;;2.88;;
40074;SDS011;26529;51.530;11.754;2022-11-20T02:37:34;2.95;;;2.50;;
40074;SDS011;26529;51.530;11.754;2022-11-20T02:40:04;8.43;;;3.17;;
40074;SDS011;26529;51.530;11.754;2022-11-20T02:42:29;3.58;;;2.67;;
40074;SDS011;26529;51.530;11.754;2022-11-20T02:44:55;4.20;;;2.90;;
40074;SDS011;26529;51.530;11.754;2022-11-20T02:47:20;4.95;;;2.90;;
40074;SDS011;26529;51.530;11.754;2022-11-20T02:49:46;3.30;;;2.38;;
40074;SDS011;26529;51.530;11.754;2022-11-20T02:52:11;3.10;;;2.45;;
40074;SDS011;26529;51.530;11.754;2022-11-20T02:54:37;4.53;;;2.83;;
40074;SDS011;26529;51.530;11.754;2022-11-20T02:57:02;3.95;;;2.70;;
40074;SDS011;26529;51.530;11.754;2022-11-20T02:59:28;3.25;;;2.60;;
40074;SDS011;26529;51.530;11.754;2022-11-20T03:01:53;4.03;;;2.67;;
40074;SDS011;26529;51.530;11.754;2022-11-20T03:04:19;4.60;;;2.47;;
40074;SDS011;26529;51.530;11.754;2022-11-20T03:06:45;4.65;;;2.70;;
40074;SDS011;26529;51.530;11.754;2022-11-20T03:09:10;3.17;;;2.53;;
40074;SDS011;26529;51.530;11.754;2022-11-20T03:11:36;4.05;;;2.70;;
40074;SDS011;26529;51.530;11.754;2022-11-20T03:14:02;4.18;;;2.80;;
40074;SDS011;26529;51.530;11.754;2022-11-20T03:16:30;2.90;;;2.47;;
40074;SDS011;26529;51.530;11.754;2022-11-20T03:18:56;3.33;;;2.60;;
40074;SDS011;26529;51.530;11.754;2022-11-20T03:21:22;5.15;;;2.75;;
40074;SDS011;26529;51.530;11.754;2022-11-20T03:23:47;4.10;;;2.80;;
40074;SDS011;26529;51.530;11.754;2022-11-20T03:26:14;3.67;;;2.72;;
40074;SDS011;26529;51.530;11.754;2022-11-20T03:28:42;3.10;;;2.80;;
40074;SDS011;26529;51.530;11.754;2022-11-20T03:31:13;2.72;;;2.30;;
40074;SDS011;26529;51.530;11.754;2022-11-20T03:33:40;4.43;;;2.88;;
40074;SDS011;26529;51.530;11.754;2022-11-20T03:36:08;2.55;;;2.30;;
40074;SDS011;26529;51.530;11.754;2022-11-20T03:38:36;3.85;;;2.28;;
40074;SDS011;26529;51.530;11.754;2022-11-20T03:41:05;4.88;;;2.30;;
40074;SDS011;26529;51.530;11.754;2022-11-20T03:43:33;2.92;;;2.35;;
40074;SDS011;26529;51.530;11.754;2022-11-20T03:45:59;4.47;;;2.75;;
40074;SDS011;26529;51.530;11.754;2022-11-20T03:48:25;2.70;;;2.35;;
40074;SDS011;26529;51.530;11.754;2022-11-20T03:50:51;3.00;;;2.25;;
40074;SDS011;26529;51.530;11.754;2022-11-20T03:53:17;3.88;;;2.72;;
40074;SDS011;26529;51.530;11.754;2022-11-20T03:55:43;5.65;;;2.72;;
40074;SDS011;26529;51.530;11.754;2022-11-20T03:58:09;3.97;;;2.45;;
40074;SDS011;26529;51.530;11.754;2022-11-20T04:00:35;4.07;;;3.13;;
40074;SDS011;26529;51.530;11.754;2022-11-20T04:03:01;2.97;;;2.50;;
40074;SDS011;26529;51.530;11.754;2022-11-20T04:05:28;3.45;;;2.70;;
40074;SDS011;26529;51.530;11.754;2022-11-20T04:07:53;2.42;;;2.22;;
40074;SDS011;26529;51.530;11.754;2022-11-20T04:10:19;3.95;;;2.47;;
40074;SDS011;26529;51.530;11.754;2022-11-20T04:12:44;3.08;;;2.58;;
40074;SDS011;26529;51.530;11.754;2022-11-20T04:15:10;2.92;;;2.53;;
40074;SDS011;26529;51.530;11.754;2022-11-20T04:17:35;2.60;;;2.40;;
40074;SDS011;26529;51.530;11.754;2022-11-20T04:20:01;4.50;;;2.50;;
40074;SDS011;26529;51.530;11.754;2022-11-20T04:22:27;4.13;;;2.60;;
40074;SDS011;26529;51.530;11.754;2022-11-20T04:24:53;3.17;;;2.88;;
40074;SDS011;26529;51.530;11.754;2022-11-20T04:27:18;4.43;;;2.60;;
40074;SDS011;26529;51.530;11.754;2022-11-20T04:29:44;4.75;;;2.67;;
40074;SDS011;26529;51.530;11.754;2022-11-20T04:32:09;2.95;;;2.63;;
40074;SDS011;26529;51.530;11.754;2022-11-20T04:34:35;3.47;;;2.58;;
40074;SDS011;26529;51.530;11.754;2022-11-20T04:37:01;3.00;;;2.70;;
40074;SDS011;26529;51.530;11.754;2022-11-20T04:39:26;3.55;;;2.50;;
40074;SDS011;26529;51.530;11.754;2022-11-20T04:41:52;3.78;;;3.03;;
40074;SDS011;26529;51.530;11.754;2022-11-20T04:44:37;3.13;;;2.47;;
40074;SDS011;26529;51.530;11.754;2022-11-20T04:47:03;3.50;;;2.85;;
40074;SDS011;26529;51.530;11.754;2022-11-20T04:49:28;3.20;;;2.47;;
40074;SDS011;26529;51.530;11.754;2022-11-20T04:51:54;2.60;;;2.30;;
40074;SDS011;26529;51.530;11.754;2022-11-20T04:54:19;4.13;;;2.33;;
40074;SDS011;26529;51.530;11.754;2022-11-20T04:56:48;4.85;;;2.70;;
40074;SDS011;26529;51.530;11.754;2022-11-20T04:59:14;2.80;;;2.50;;
40074;SDS011;26529;51.530;11.754;2022-11-20T05:01:40;3.15;;;2.22;;
40074;SDS011;26529;51.530;11.754;2022-11-20T05:04:05;3.20;;;2.40;;
40074;SDS011;26529;51.530;11.754;2022-11-20T05:06:31;3.85;;;2.00;;
40074;SDS011;26529;51.530;11.754;2022-11-20T05:08:57;4.32;;;2.63;;
40074;SDS011;26529;51.530;11.754;2022-11-20T05:11:23;3.20;;;2.70;;
40074;SDS011;26529;51.530;11.754;2022-11-20T05:13:49;2.85;;;2.50;;
40074;SDS011;26529;51.530;11.754;2022-11-20T05:16:17;3.67;;;2.38;;
40074;SDS011;26529;51.530;11.754;2022-11-20T05:18:44;3.92;;;2.35;;
40074;SDS011;26529;51.530;11.754;2022-11-20T05:21:10;4.30;;;2.90;;
40074;SDS011;26529;51.530;11.754;2022-11-20T05:23:36;2.58;;;2.13;;
40074;SDS011;26529;51.530;11.754;2022-11-20T05:26:03;2.95;;;2.15;;
40074;SDS011;26529;51.530;11.754;2022-11-20T05:28:29;5.70;;;2.78;;
40074;SDS011;26529;51.530;11.754;2022-11-20T05:30:56;3.22;;;2.63;;
40074;SDS011;26529;51.530;11.754;2022-11-20T05:33:28;6.60;;;2.90;;
40074;SDS011;26529;51.530;11.754;2022-11-20T05:35:57;2.90;;;2.65;;
40074;SDS011;26529;51.530;11.754;2022-11-20T05:38:23;4.25;;;2.88;;
40074;SDS011;26529;51.530;11.754;2022-11-20T05:40:49;3.28;;;2.80;;
40074;SDS011;26529;51.530;11.754;2022-11-20T05:43:14;4.43;;;2.60;;
40074;SDS011;26529;51.530;11.754;2022-11-20T05:45:40;6.63;;;2.90;;
40074;SDS011;26529;51.530;11.754;2022-11-20T05:48:05;2.88;;;2.63;;
40074;SDS011;26529;51.530;11.754;2022-11-20T05:50:31;4.30;;;2.75;;
40074;SDS011;26529;51.530;11.754;2022-11-20T05:53:00;3.05;;;2.75;;
40074;SDS011;26529;51.530;11.754;2022-11-20T05:55:26;4.10;;;2.58;;
40074;SDS011;26529;51.530;11.754;2022-11-20T05:57:53;5.18;;;2.65;;
40074;SDS011;26529;51.530;11.754;2022-11-20T06:00:20;3.05;;;2.40;;
40074;SDS011;26529;51.530;11.754;2022-11-20T06:02:45;3.38;;;2.65;;
40074;SDS011;26529;51.530;11.754;2022-11-20T06:05:11;4.03;;;2.72;;
40074;SDS011;26529;51.530;11.754;2022-11-20T06:07:36;3.63;;;3.03;;
40074;SDS011;26529;51.530;11.754;2022-11-20T06:10:02;3.22;;;2.70;;
40074;SDS011;26529;51.530;11.754;2022-11-20T06:12:28;3.83;;;2.75;;
40074;SDS011;26529;51.530;11.754;2022-11-20T06:14:53;3.70;;;3.13;;
40074;SDS011;26529;51.530;11.754;2022-11-20T06:17:19;2.92;;;2.70;;
40074;SDS011;26529;51.530;11.754;2022-11-20T06:19:45;6.75;;;2.90;;
40074;SDS011;26529;51.530;11.754;2022-11-20T06:22:10;4.43;;;2.90;;
40074;SDS011;26529;51.530;11.754;2022-11-20T06:24:36;3.28;;;2.75;;
40074;SDS011;26529;51.530;11.754;2022-11-20T06:27:01;3.45;;;3.00;;
40074;SDS011;26529;51.530;11.754;2022-11-20T06:29:27;2.92;;;2.45;;
40074;SDS011;26529;51.530;11.754;2022-11-20T06:31:54;3.60;;;2.70;;
40074;SDS011;26529;51.530;11.754;2022-11-20T06:34:19;3.28;;;2.28;;
40074;SDS011;26529;51.530;11.754;2022-11-20T06:36:45;4.20;;;3.00;;
40074;SDS011;26529;51.530;11.754;2022-11-20T06:39:10;4.35;;;2.95;;
40074;SDS011;26529;51.530;11.754;2022-11-20T06:41:36;3.33;;;2.75;;
40074;SDS011;26529;51.530;11.754;2022-11-20T06:44:03;3.20;;;2.72;;
40074;SDS011;26529;51.530;11.754;2022-11-20T06:46:29;2.85;;;2.58;;
40074;SDS011;26529;51.530;11.754;2022-11-20T06:48:55;3.30;;;2.40;;
40074;SDS011;26529;51.530;11.754;2022-11-20T06:51:20;3.08;;;2.78;;
40074;SDS011;26529;51.530;11.754;2022-11-20T06:53:46;3.58;;;2.67;;
40074;SDS011;26529;51.530;11.754;2022-11-20T06:56:12;2.30;;;2.10;;
40074;SDS011;26529;51.530;11.754;2022-11-20T06:58:37;3.83;;;2.95;;
40074;SDS011;26529;51.530;11.754;2022-11-20T07:01:04;4.60;;;2.85;;
40074;SDS011;26529;51.530;11.754;2022-11-20T07:03:35;5.15;;;2.78;;
40074;SDS011;26529;51.530;11.754;2022-11-20T07:06:02;2.88;;;2.58;;
40074;SDS011;26529;51.530;11.754;2022-11-20T07:08:28;4.97;;;2.92;;
40074;SDS011;26529;51.530;11.754;2022-11-20T07:11:01;3.35;;;3.03;;
40074;SDS011;26529;51.530;11.754;2022-11-20T07:13:28;3.45;;;2.58;;
40074;SDS011;26529;51.530;11.754;2022-11-20T07:15:54;4.68;;;3.10;;
40074;SDS011;26529;51.530;11.754;2022-11-20T07:18:23;7.10;;;2.60;;
40074;SDS011;26529;51.530;11.754;2022-11-20T07:20:49;2.60;;;2.40;;
40074;SDS011;26529;51.530;11.754;2022-11-20T07:23:14;4.97;;;2.88;;
40074;SDS011;26529;51.530;11.754;2022-11-20T07:25:40;9.50;;;3.03;;
40074;SDS011;26529;51.530;11.754;2022-11-20T07:28:05;8.35;;;3.38;;
40074;SDS011;26529;51.530;11.754;2022-11-20T07:30:31;8.77;;;3.28;;
40074;SDS011;26529;51.530;11.754;2022-11-20T07:32:57;6.72;;;3.40;;
40074;SDS011;26529;51.530;11.754;2022-11-20T07:35:22;8.35;;;2.80;;
40074;SDS011;26529;51.530;11.754;2022-11-20T07:37:49;10.18;;;2.70;;
40074;SDS011;26529;51.530;11.754;2022-11-20T07:40:18;6.53;;;3.38;;
40074;SDS011;26529;51.530;11.754;2022-11-20T07:42:51;7.68;;;2.90;;
40074;SDS011;26529;51.530;11.754;2022-11-20T07:45:20;4.25;;;3.08;;
40074;SDS011;26529;51.530;11.754;2022-11-20T07:47:47;5.95;;;3.22;;
40074;SDS011;26529;51.530;11.754;2022-11-20T07:50:12;5.97;;;3.33;;
40074;SDS011;26529;51.530;11.754;2022-11-20T07:52:39;5.63;;;3.53;;
40074;SDS011;26529;51.530;11.754;2022-11-20T07:55:06;3.33;;;2.60;;
40074;SDS011;26529;51.530;11.754;2022-11-20T07:57:32;5.55;;;3.05;;
40074;SDS011;26529;51.530;11.754;2022-11-20T07:59:58;3.50;;;2.67;;
40074;SDS011;26529;51.530;11.754;2022-11-20T08:02:23;3.53;;;2.55;;
40074;SDS011;26529;51.530;11.754;2022-11-20T08:04:49;6.82;;;3.55;;
40074;SDS011;26529;51.530;11.754;2022-11-20T08:07:14;5.93;;;3.08;;
40074;SDS011;26529;51.530;11.754;2022-11-20T08:09:40;3.13;;;2.63;;
40074;SDS011;26529;51.530;11.754;2022-11-20T08:12:05;3.53;;;2.85;;
40074;SDS011;26529;51.530;11.754;2022-11-20T08:14:50;4.70;;;2.95;;
40074;SDS011;26529;51.530;11.754;2022-11-20T08:17:15;4.22;;;3.50;;
40074;SDS011;26529;51.530;11.754;2022-11-20T08:19:41;4.57;;;3.35;;
40074;SDS011;26529;51.530;11.754;2022-11-20T08:22:06;3.33;;;2.83;;
40074;SDS011;26529;51.530;11.754;2022-11-20T08:24:32;5.60;;;2.83;;
40074;SDS011;26529;51.530;11.754;2022-11-20T08:26:58;5.45;;;2.80;;
40074;SDS011;26529;51.530;11.754;2022-11-20T08:29:24;3.75;;;3.10;;
40074;SDS011;26529;51.530;11.754;2022-11-20T08:31:51;6.82;;;3.08;;
40074;SDS011;26529;51.530;11.754;2022-11-20T08:34:16;6.72;;;3.25;;
40074;SDS011;26529;51.530;11.754;2022-11-20T08:36:42;10.93;;;3.38;;
40074;SDS011;26529;51.530;11.754;2022-11-20T08:39:07;5.90;;;2.58;;
40074;SDS011;26529;51.530;11.754;2022-11-20T08:41:36;6.20;;;2.85;;
40074;SDS011;26529;51.530;11.754;2022-11-20T08:44:02;9.85;;;3.45;;
40074;SDS011;26529;51.530;11.754;2022-11-20T08:46:37;10.52;;;3.30;;
40074;SDS011;26529;51.530;11.754;2022-11-20T08:49:04;10.23;;;3.40;;
40074;SDS011;26529;51.530;11.754;2022-11-20T08:51:31;11.60;;;3.05;;
40074;SDS011;26529;51.530;11.754;2022-11-20T08:53:57;11.50;;;3.60;;
40074;SDS011;26529;51.530;11.754;2022-11-20T08:56:23;13.10;;;3.97;;
40074;SDS011;26529;51.530;11.754;2022-11-20T08:58:49;9.30;;;3.60;;
40074;SDS011;26529;51.530;11.754;2022-11-20T09:01:16;8.48;;;3.00;;
40074;SDS011;26529;51.530;11.754;2022-11-20T09:03:42;11.25;;;3.38;;
40074;SDS011;26529;51.530;11.754;2022-11-20T09:06:07;5.85;;;3.28;;
40074;SDS011;26529;51.530;11.754;2022-11-20T09:08:33;10.18;;;2.95;;
40074;SDS011;26529;51.530;11.754;2022-11-20T09:10:59;8.43;;;3.53;;
40074;SDS011;26529;51.530;11.754;2022-11-20T09:13:26;14.48;;;3.20;;
40074;SDS011;26529;51.530;11.754;2022-11-20T09:15:55;6.10;;;3.13;;
40074;SDS011;26529;51.530;11.754;2022-11-20T09:18:22;12.15;;;3.50;;
40074;SDS011;26529;51.530;11.754;2022-11-20T09:20:49;10.18;;;2.75;;
40074;SDS011;26529;51.530;11.754;2022-11-20T09:23:14;7.43;;;3.17;;
40074;SDS011;26529;51.530;11.754;2022-11-20T09:25:40;10.32;;;3.55;;
40074;SDS011;26529;51.530;11.754;2022-11-20T09:28:06;6.57;;;3.47;;
40074;SDS011;26529;51.530;11.754;2022-11-20T09:30:32;5.00;;;2.67;;
40074;SDS011;26529;51.530;11.754;2022-11-20T09:32:57;6.60;;;3.33;;
40074;SDS011;26529;51.530;11.754;2022-11-20T09:35:23;7.63;;;3.40;;
40074;SDS011;26529;51.530;11.754;2022-11-20T09:37:48;11.65;;;3.22;;
40074;SDS011;26529;51.530;11.754;2022-11-20T09:40:24;9.55;;;3.38;;
40074;SDS011;26529;51.530;11.754;2022-11-20T09:45:37;10.32;;;3.58;;
40074;SDS011;26529;51.530;11.754;2022-11-20T09:48:26;8.23;;;3.05;;
40074;SDS011;26529;51.530;11.754;2022-11-20T09:53:50;6.55;;;2.60;;
40074;SDS011;26529;51.530;11.754;2022-11-20T09:56:23;11.80;;;3.17;;
40074;SDS011;26529;51.530;11.754;2022-11-20T09:58:51;10.93;;;3.55;;
40074;SDS011;26529;51.530;11.754;2022-11-20T10:01:19;9.23;;;3.75;;
40074;SDS011;26529;51.530;11.754;2022-11-20T10:03:54;10.85;;;3.22;;
40074;SDS011;26529;51.530;11.754;2022-11-20T10:06:31;8.85;;;3.20;;
40074;SDS011;26529;51.530;11.754;2022-11-20T10:11:38;10.38;;;2.70;;
40074;SDS011;26529;51.530;11.754;2022-11-20T10:14:23;5.28;;;2.95;;
40074;SDS011;26529;51.530;11.754;2022-11-20T10:25:22;8.52;;;3.22;;
40074;SDS011;26529;51.530;11.754;2022-11-20T10:30:22;9.52;;;3.05;;
40074;SDS011;26529;51.530;11.754;2022-11-20T10:33:32;7.15;;;2.83;;
40074;SDS011;26529;51.530;11.754;2022-11-20T10:35:52;9.57;;;3.13;;
40074;SDS011;26529;51.530;11.754;2022-11-20T10:38:50;6.05;;;3.03;;
40074;SDS011;26529;51.530;11.754;2022-11-20T10:41:24;7.88;;;3.42;;
40074;SDS011;26529;51.530;11.754;2022-11-20T10:44:05;8.70;;;2.80;;
40074;SDS011;26529;51.530;11.754;2022-11-20T10:46:42;10.43;;;3.03;;
40074;SDS011;26529;51.530;11.754;2022-11-20T10:49:13;7.63;;;2.90;;
40074;SDS011;26529;51.530;11.754;2022-11-20T10:57:25;9.43;;;2.72;;
40074;SDS011;26529;51.530;11.754;2022-11-20T11:00:00;11.63;;;3.05;;
40074;SDS011;26529;51.530;11.754;2022-11-20T11:05:31;5.88;;;2.40;;
40074;SDS011;26529;51.530;11.754;2022-11-20T11:07:58;13.52;;;3.10;;
40074;SDS011;26529;51.530;11.754;2022-11-20T11:13:23;13.75;;;3.20;;
40074;SDS011;26529;51.530;11.754;2022-11-20T11:15:51;11.55;;;3.50;;
40074;SDS011;26529;51.530;11.754;2022-11-20T11:18:27;19.08;;;4.07;;
40074;SDS011;26529;51.530;11.754;2022-11-20T11:20:56;13.50;;;4.10;;
40074;SDS011;26529;51.530;11.754;2022-11-20T11:23:32;17.05;;;4.05;;
40074;SDS011;26529;51.530;11.754;2022-11-20T11:26:00;18.55;;;3.95;;
40074;SDS011;26529;51.530;11.754;2022-11-20T11:28:27;14.25;;;3.13;;
40074;SDS011;26529;51.530;11.754;2022-11-20T11:30:54;12.00;;;3.38;;
40074;SDS011;26529;51.530;11.754;2022-11-20T11:33:24;13.10;;;2.97;;
40074;SDS011;26529;51.530;11.754;2022-11-20T11:35:53;16.77;;;3.50;;
40074;SDS011;26529;51.530;11.754;2022-11-20T11:41:06;10.85;;;3.22;;
40074;SDS011;26529;51.530;11.754;2022-11-20T11:43:35;10.75;;;2.67;;
40074;SDS011;26529;51.530;11.754;2022-11-20T11:54:23;12.43;;;3.67;;
40074;SDS011;26529;51.530;11.754;2022-11-20T11:56:50;14.68;;;3.72;;
40074;SDS011;26529;51.530;11.754;2022-11-20T11:59:22;11.23;;;3.30;;
40074;SDS011;26529;51.530;11.754;2022-11-20T12:01:54;14.45;;;3.75;;
40074;SDS011;26529;51.530;11.754;2022-11-20T12:04:46;16.15;;;3.75;;
40074;SDS011;26529;51.530;11.754;2022-11-20T12:10:21;13.10;;;3.97;;
40074;SDS011;26529;51.530;11.754;2022-11-20T12:12:54;11.77;;;2.78;;
40074;SDS011;26529;51.530;11.754;2022-11-20T12:15:30;9.38;;;2.65;;
40074;SDS011;26529;51.530;11.754;2022-11-20T12:17:58;11.05;;;2.88;;
40074;SDS011;26529;51.530;11.754;2022-11-20T12:20:25;16.33;;;3.28;;
40074;SDS011;26529;51.530;11.754;2022-11-20T12:23:04;10.27;;;3.03;;
40074;SDS011;26529;51.530;11.754;2022-11-20T12:25:32;11.55;;;3.08;;
40074;SDS011;26529;51.530;11.754;2022-11-20T12:40:28;15.80;;;3.50;;
40074;SDS011;26529;51.530;11.754;2022-11-20T12:43:01;14.70;;;3.28;;
40074;SDS011;26529;51.530;11.754;2022-11-20T12:46:14;20.50;;;3.30;;
40074;SDS011;26529;51.530;11.754;2022-11-20T12:48:52;14.05;;;3.25;;
40074;SDS011;26529;51.530;11.754;2022-11-20T12:51:44;18.45;;;2.97;;
40074;SDS011;26529;51.530;11.754;2022-11-20T12:57:01;10.38;;;3.10;;
40074;SDS011;26529;51.530;11.754;2022-11-20T13:05:18;8.55;;;2.90;;
40074;SDS011;26529;51.530;11.754;2022-11-20T13:07:50;19.10;;;3.28;;
40074;SDS011;26529;51.530;11.754;2022-11-20T13:10:20;15.50;;;3.63;;
40074;SDS011;26529;51.530;11.754;2022-11-20T13:12:57;11.95;;;3.25;;
40074;SDS011;26529;51.530;11.754;2022-11-20T13:15:37;9.68;;;3.10;;
40074;SDS011;26529;51.530;11.754;2022-11-20T13:18:10;6.53;;;3.00;;
40074;SDS011;26529;51.530;11.754;2022-11-20T13:20:41;8.93;;;2.47;;
40074;SDS011;26529;51.530;11.754;2022-11-20T13:23:10;10.27;;;2.78;;
40074;SDS011;26529;51.530;11.754;2022-11-20T13:25:37;11.65;;;2.90;;
40074;SDS011;26529;51.530;11.754;2022-11-20T13:30:36;8.60;;;2.42;;
40074;SDS011;26529;51.530;11.754;2022-11-20T13:36:04;6.10;;;2.60;;
40074;SDS011;26529;51.530;11.754;2022-11-20T13:41:23;7.53;;;2.50;;
40074;SDS011;26529;51.530;11.754;2022-11-20T13:43:59;9.70;;;3.05;;
40074;SDS011;26529;51.530;11.754;2022-11-20T13:46:38;9.52;;;3.15;;
40074;SDS011;26529;51.530;11.754;2022-11-20T13:49:09;8.30;;;3.10;;
40074;SDS011;26529;51.530;11.754;2022-11-20T13:51:48;7.25;;;2.45;;
40074;SDS011;26529;51.530;11.754;2022-11-20T13:54:26;7.65;;;2.22;;
40074;SDS011;26529;51.530;11.754;2022-11-20T14:00:17;7.15;;;3.17;;
40074;SDS011;26529;51.530;11.754;2022-11-20T14:02:45;10.98;;;2.53;;
40074;SDS011;26529;51.530;11.754;2022-11-20T14:05:34;10.88;;;2.95;;
40074;SDS011;26529;51.530;11.754;2022-11-20T14:08:03;6.43;;;2.30;;
40074;SDS011;26529;51.530;11.754;2022-11-20T14:10:30;6.20;;;2.38;;
40074;SDS011;26529;51.530;11.754;2022-11-20T14:12:56;7.50;;;2.70;;
40074;SDS011;26529;51.530;11.754;2022-11-20T14:15:27;6.65;;;2.78;;
40074;SDS011;26529;51.530;11.754;2022-11-20T14:18:10;8.65;;;2.38;;
40074;SDS011;26529;51.530;11.754;2022-11-20T14:20:40;9.98;;;2.47;;
40074;SDS011;26529;51.530;11.754;2022-11-20T14:23:09;6.03;;;2.55;;
40074;SDS011;26529;51.530;11.754;2022-11-20T14:25:35;8.27;;;2.80;;
40074;SDS011;26529;51.530;11.754;2022-11-20T14:28:02;5.78;;;2.60;;
40074;SDS011;26529;51.530;11.754;2022-11-20T14:30:36;6.13;;;2.25;;
40074;SDS011;26529;51.530;11.754;2022-11-20T14:33:09;5.85;;;2.13;;
40074;SDS011;26529;51.530;11.754;2022-11-20T14:35:40;3.97;;;2.53;;
40074;SDS011;26529;51.530;11.754;2022-11-20T14:38:14;7.43;;;2.08;;
40074;SDS011;26529;51.530;11.754;2022-11-20T14:40:42;3.90;;;2.03;;
40074;SDS011;26529;51.530;11.754;2022-11-20T14:43:24;3.03;;;2.03;;
40074;SDS011;26529;51.530;11.754;2022-11-20T14:45:55;6.38;;;2.80;;
40074;SDS011;26529;51.530;11.754;2022-11-20T14:48:23;5.35;;;2.60;;
40074;SDS011;26529;51.530;11.754;2022-11-20T14:50:55;5.45;;;2.88;;
40074;SDS011;26529;51.530;11.754;2022-11-20T14:53:24;5.10;;;2.58;;
40074;SDS011;26529;51.530;11.754;2022-11-20T14:55:57;5.20;;;2.38;;
40074;SDS011;26529;51.530;11.754;2022-11-20T14:58:25;3.40;;;2.42;;
40074;SDS011;26529;51.530;11.754;2022-11-20T15:00:54;5.20;;;2.25;;
40074;SDS011;26529;51.530;11.754;2022-11-20T15:03:22;5.93;;;2.88;;
40074;SDS011;26529;51.530;11.754;2022-11-20T15:05:49;2.90;;;1.90;;
40074;SDS011;26529;51.530;11.754;2022-11-20T15:08:16;3.58;;;2.20;;
40074;SDS011;26529;51.530;11.754;2022-11-20T15:10:45;4.43;;;2.38;;
40074;SDS011;26529;51.530;11.754;2022-11-20T15:13:15;4.10;;;2.35;;
40074;SDS011;26529;51.530;11.754;2022-11-20T15:15:48;2.53;;;1.90;;
40074;SDS011;26529;51.530;11.754;2022-11-20T15:18:19;3.03;;;1.77;;
40074;SDS011;26529;51.530;11.754;2022-11-20T15:23:17;3.42;;;2.38;;
40074;SDS011;26529;51.530;11.754;2022-11-20T15:25:44;4.43;;;2.50;;
40074;SDS011;26529;51.530;11.754;2022-11-20T15:30:56;4.07;;;2.28;;
40074;SDS011;26529;51.530;11.754;2022-11-20T15:33:22;4.30;;;2.10;;
40074;SDS011;26529;51.530;11.754;2022-11-20T15:35:48;4.40;;;2.58;;
40074;SDS011;26529;51.530;11.754;2022-11-20T15:38:13;3.75;;;1.88;;
40074;SDS011;26529;51.530;11.754;2022-11-20T15:40:39;3.63;;;2.00;;
40074;SDS011;26529;51.530;11.754;2022-11-20T15:43:05;3.47;;;2.15;;
40074;SDS011;26529;51.530;11.754;2022-11-20T15:45:34;5.30;;;1.98;;
40074;SDS011;26529;51.530;11.754;2022-11-20T15:48:04;3.22;;;2.30;;
40074;SDS011;26529;51.530;11.754;2022-11-20T15:50:36;4.00;;;2.10;;
40074;SDS011;26529;51.530;11.754;2022-11-20T15:53:03;3.95;;;2.13;;
40074;SDS011;26529;51.530;11.754;2022-11-20T15:55:29;3.90;;;1.70;;
40074;SDS011;26529;51.530;11.754;2022-11-20T15:57:55;3.88;;;2.35;;
40074;SDS011;26529;51.530;11.754;2022-11-20T16:00:21;2.38;;;1.75;;
40074;SDS011;26529;51.530;11.754;2022-11-20T16:02:46;2.45;;;2.00;;
40074;SDS011;26529;51.530;11.754;2022-11-20T16:05:12;3.13;;;2.05;;
40074;SDS011;26529;51.530;11.754;2022-11-20T16:07:40;3.45;;;2.55;;
40074;SDS011;26529;51.530;11.754;2022-11-20T16:10:05;2.78;;;1.73;;